Time;durP1;ratioP1;P1;durP2;ratioP2;P2;SDS_P1;SDS_P2;PMS_P1;PMS_P2;Temp;Humidity;BMP_temperature;BMP_pressure;BME280_temperature;BME280_humidity;BME280_pressure;Samples;Min_cycle;Max_cycle;Signal;HPM_P1;HPM_P2
2023/12/30 00:01:20;;;;;;;1.38;0.70;;;15.80;61.80;;;;;;5114858;28;20210;-61
2023/12/30 00:03:46;;;;;;;1.27;1.10;;;15.80;61.80;;;;;;5114925;28;20520;-62
2023/12/30 00:06:12;;;;;;;1.35;0.82;;;15.80;61.80;;;;;;5114303;28;20173;-61
2023/12/30 00:08:37;;;;;;;1.25;1.05;;;15.80;61.80;;;;;;5114606;28;20181;-62
2023/12/30 00:11:03;;;;;;;1.20;0.80;;;15.80;61.80;;;;;;5114994;28;20169;-61
2023/12/30 00:13:29;;;;;;;3.22;0.93;;;15.70;61.80;;;;;;5113755;28;20181;-61
2023/12/30 00:15:54;;;;;;;1.15;0.90;;;15.70;61.70;;;;;;5114761;28;20180;-61
2023/12/30 00:18:20;;;;;;;1.42;0.90;;;15.80;61.80;;;;;;5114381;28;20179;-61
2023/12/30 00:20:45;;;;;;;1.58;1.00;;;15.70;61.80;;;;;;5114000;28;20172;-61
2023/12/30 00:23:11;;;;;;;1.95;0.70;;;15.70;61.70;;;;;;5114851;28;20209;-62
2023/12/30 00:25:37;;;;;;;2.78;1.17;;;15.70;61.70;;;;;;5114516;28;20170;-61
2023/12/30 00:28:02;;;;;;;1.00;0.80;;;15.70;61.80;;;;;;5113942;28;20196;-62
2023/12/30 00:30:28;;;;;;;1.38;1.00;;;15.70;61.70;;;;;;5114289;28;20666;-61
2023/12/30 00:32:53;;;;;;;2.08;1.20;;;15.70;61.70;;;;;;5114445;28;20631;-62
2023/12/30 00:35:19;;;;;;;1.58;0.85;;;15.70;61.70;;;;;;5113355;28;20596;-62
2023/12/30 00:37:44;;;;;;;1.65;0.82;;;15.70;61.70;;;;;;5114577;28;20208;-61
2023/12/30 00:40:11;;;;;;;1.48;0.73;;;15.70;61.70;;;;;;5114343;28;20180;-62
2023/12/30 00:42:36;;;;;;;1.20;0.95;;;15.70;61.70;;;;;;5113125;28;20226;-61
2023/12/30 00:45:02;;;;;;;4.75;1.67;;;15.60;61.70;;;;;;5114394;28;20169;-62
2023/12/30 00:47:28;;;;;;;1.08;0.90;;;15.60;61.60;;;;;;5113877;28;20188;-62
2023/12/30 00:49:53;;;;;;;1.45;0.82;;;15.60;61.60;;;;;;5113487;28;20222;-62
2023/12/30 00:52:19;;;;;;;2.67;1.15;;;15.60;61.60;;;;;;5114012;28;20198;-62
2023/12/30 00:54:44;;;;;;;2.05;0.90;;;15.60;61.60;;;;;;5113944;28;20679;-62
2023/12/30 00:57:10;;;;;;;1.48;0.80;;;15.60;61.70;;;;;;5113514;28;20169;-62
2023/12/30 00:59:35;;;;;;;2.45;1.02;;;15.60;61.60;;;;;;5113762;28;20576;-62
2023/12/30 01:02:01;;;;;;;1.15;0.90;;;15.60;61.60;;;;;;5113160;28;20675;-61
2023/12/30 01:04:26;;;;;;;0.73;0.73;;;15.60;61.60;;;;;;5113633;28;20169;-62
2023/12/30 01:06:52;;;;;;;1.10;0.80;;;15.60;61.60;;;;;;5113831;28;20168;-62
2023/12/30 01:09:17;;;;;;;1.55;0.90;;;15.60;61.60;;;;;;5112601;28;20945;-62
2023/12/30 01:11:43;;;;;;;0.73;0.73;;;15.60;61.60;;;;;;5113688;28;20620;-61
2023/12/30 01:14:08;;;;;;;1.58;0.80;;;15.60;61.60;;;;;;5113748;28;20185;-61
2023/12/30 01:16:36;;;;;;;1.73;1.13;;;15.50;61.60;;;;;;5112698;28;20675;-62
2023/12/30 01:19:02;;;;;;;1.67;0.90;;;15.60;61.60;;;;;;5113575;28;20188;-61
2023/12/30 01:21:27;;;;;;;1.52;0.80;;;15.60;61.70;;;;;;5113484;28;20184;-61
2023/12/30 01:23:53;;;;;;;1.17;0.70;;;15.60;61.60;;;;;;5112960;28;20172;-61
2023/12/30 01:26:19;;;;;;;1.77;0.93;;;15.60;61.60;;;;;;5113092;28;20180;-61
2023/12/30 01:28:44;;;;;;;2.30;1.00;;;15.60;61.70;;;;;;5113507;28;20165;-61
2023/12/30 01:31:10;;;;;;;0.82;0.80;;;15.50;61.60;;;;;;5112671;28;20173;-62
2023/12/30 01:33:36;;;;;;;1.73;1.02;;;15.50;61.60;;;;;;5112897;28;20635;-61
2023/12/30 01:36:02;;;;;;;1.20;1.10;;;15.50;61.60;;;;;;5113402;28;20274;-61
2023/12/30 01:38:28;;;;;;;1.55;1.00;;;15.50;61.60;;;;;;5112269;28;20181;-62
2023/12/30 01:40:55;;;;;;;2.13;1.00;;;15.50;61.60;;;;;;5113217;28;20165;-62
2023/12/30 01:43:28;;;;;;;1.00;0.80;;;15.50;61.60;;;;;;5112817;28;20212;-61
2023/12/30 01:45:56;;;;;;;1.20;0.93;;;15.50;61.60;;;;;;5112437;28;20203;-62
2023/12/30 01:48:21;;;;;;;1.00;0.80;;;15.40;61.50;;;;;;5113018;28;20169;-62
2023/12/30 01:50:48;;;;;;;1.67;1.05;;;15.50;61.60;;;;;;5094709;28;20301;-62
2023/12/30 01:53:13;;;;;;;1.73;0.80;;;15.50;61.60;;;;;;5093834;28;20227;-62
2023/12/30 01:55:39;;;;;;;1.50;0.90;;;15.50;61.60;;;;;;5094832;28;20173;-62
2023/12/30 01:58:04;;;;;;;1.55;0.98;;;15.50;61.60;;;;;;5112806;28;20596;-61
2023/12/30 02:00:30;;;;;;;1.98;0.85;;;15.40;61.60;;;;;;5076688;28;20173;-61
2023/12/30 02:02:55;;;;;;;1.17;1.02;;;15.40;61.50;;;;;;5094340;28;20208;-61
2023/12/30 02:05:21;;;;;;;1.50;0.90;;;15.40;61.50;;;;;;5111929;28;20169;-62
2023/12/30 02:07:47;;;;;;;1.88;1.10;;;15.40;61.60;;;;;;5112730;28;20173;-62
2023/12/30 02:10:12;;;;;;;0.90;0.70;;;15.40;61.50;;;;;;5077569;28;20165;-61
2023/12/30 02:12:38;;;;;;;1.52;0.85;;;15.40;61.60;;;;;;5093475;28;20275;-61
2023/12/30 02:15:13;;;;;;;0.95;0.70;;;15.40;61.50;;;;;;5112460;28;20502;-61
2023/12/30 02:17:42;;;;;;;2.33;0.90;;;15.40;61.50;;;;;;5112722;28;20204;-61
2023/12/30 02:20:08;;;;;;;0.90;0.90;;;15.40;62.50;;;;;;5111194;28;20183;-62
2023/12/30 02:22:33;;;;;;;0.98;0.70;;;15.40;61.50;;;;;;5112069;28;20756;-61
2023/12/30 02:25:00;;;;;;;1.58;0.90;;;15.40;61.50;;;;;;5112521;28;20260;-61
2023/12/30 02:27:26;;;;;;;1.38;0.73;;;15.40;61.50;;;;;;5111397;28;20182;-61
2023/12/30 02:29:51;;;;;;;2.63;1.23;;;15.40;61.50;;;;;;5112220;28;20169;-61
2023/12/30 02:32:17;;;;;;;2.60;0.85;;;15.40;61.60;;;;;;5112189;28;20469;-61
2023/12/30 02:34:42;;;;;;;1.17;0.85;;;15.40;61.50;;;;;;5111344;28;20169;-62
2023/12/30 02:37:08;;;;;;;2.00;1.17;;;15.30;61.50;;;;;;5112204;28;20237;-61
2023/12/30 02:39:33;;;;;;;3.05;1.13;;;15.30;61.50;;;;;;5111840;28;20676;-62
2023/12/30 02:41:59;;;;;;;2.58;0.93;;;15.30;61.50;;;;;;5111386;28;20216;-62
2023/12/30 02:44:25;;;;;;;1.05;0.60;;;15.30;61.60;;;;;;5111723;28;20180;-62
2023/12/30 02:46:50;;;;;;;1.30;0.85;;;15.30;61.50;;;;;;5112042;28;20177;-61
2023/12/30 02:49:16;;;;;;;1.95;1.00;;;15.30;61.50;;;;;;5111156;28;20177;-62
2023/12/30 02:51:41;;;;;;;1.35;1.08;;;15.30;61.50;;;;;;5112000;28;20187;-62
2023/12/30 02:54:07;;;;;;;2.42;0.90;;;15.30;61.60;;;;;;5111876;28;20277;-62
2023/12/30 02:56:32;;;;;;;1.27;0.90;;;15.30;61.60;;;;;;5110919;28;20173;-62
2023/12/30 02:58:59;;;;;;;1.77;0.80;;;15.30;61.50;;;;;;5111795;28;20268;-61
2023/12/30 03:01:27;;;;;;;3.30;1.25;;;15.30;61.50;;;;;;5111742;28;20191;-62
2023/12/30 03:03:53;;;;;;;1.20;0.90;;;15.30;61.60;;;;;;5111391;28;20213;-61
2023/12/30 03:06:19;;;;;;;0.98;0.73;;;15.30;61.60;;;;;;5111587;28;20169;-62
2023/12/30 03:08:44;;;;;;;1.73;0.95;;;15.30;61.50;;;;;;5111272;28;20582;-62
2023/12/30 03:11:10;;;;;;;1.55;1.00;;;15.30;61.50;;;;;;5111777;28;20161;-62
2023/12/30 03:13:35;;;;;;;2.15;1.10;;;15.30;61.60;;;;;;5111423;28;20623;-63
2023/12/30 03:16:02;;;;;;;2.40;1.10;;;15.20;61.40;;;;;;5111269;28;20181;-62
2023/12/30 03:18:27;;;;;;;3.67;1.33;;;15.20;62.30;;;;;;5111693;28;20181;-61
2023/12/30 03:20:53;;;;;;;2.30;1.00;;;15.20;61.50;;;;;;5111804;28;20245;-61
2023/12/30 03:23:18;;;;;;;2.92;1.05;;;15.30;61.50;;;;;;5110495;28;20624;-61
2023/12/30 03:25:44;;;;;;;2.05;1.10;;;15.20;61.40;;;;;;5111632;28;20631;-61
2023/12/30 03:28:09;;;;;;;2.47;1.00;;;15.20;61.40;;;;;;5111620;28;20192;-61
2023/12/30 03:30:35;;;;;;;2.00;1.02;;;15.20;61.50;;;;;;5110873;28;20173;-62
2023/12/30 03:33:01;;;;;;;1.77;0.70;;;15.20;61.40;;;;;;5115400;28;20176;-62
2023/12/30 03:35:26;;;;;;;1.42;0.77;;;15.20;61.50;;;;;;5115390;28;20168;-62
2023/12/30 03:37:52;;;;;;;2.38;0.93;;;15.20;61.40;;;;;;5114831;28;20544;-62
2023/12/30 03:40:17;;;;;;;2.40;1.00;;;15.20;62.30;;;;;;5115150;28;20176;-61
2023/12/30 03:42:43;;;;;;;1.85;1.08;;;15.20;61.50;;;;;;5115403;28;20204;-61
2023/12/30 03:45:09;;;;;;;3.08;1.17;;;15.20;61.50;;;;;;5114925;28;20169;-62
2023/12/30 03:47:34;;;;;;;1.55;1.25;;;15.20;61.50;;;;;;5115322;28;20177;-62
2023/12/30 03:50:00;;;;;;;1.33;0.85;;;15.20;61.50;;;;;;5115333;28;20582;-62
2023/12/30 03:52:26;;;;;;;1.90;0.90;;;15.20;61.40;;;;;;5114396;28;20183;-62
2023/12/30 03:54:53;;;;;;;1.67;0.73;;;15.20;61.50;;;;;;5115054;28;20767;-62
2023/12/30 03:57:18;;;;;;;2.30;1.15;;;15.10;61.40;;;;;;5114888;28;20173;-62
2023/12/30 03:59:44;;;;;;;2.60;0.98;;;15.20;61.50;;;;;;5114566;28;20179;-61
2023/12/30 04:02:09;;;;;;;3.28;1.10;;;15.20;61.60;;;;;;5115178;28;20221;-61
2023/12/30 04:04:35;;;;;;;1.75;1.00;;;15.20;61.50;;;;;;5114788;28;20260;-61
2023/12/30 04:07:01;;;;;;;0.95;0.70;;;15.20;61.40;;;;;;5114392;28;20272;-62
2023/12/30 04:09:26;;;;;;;2.05;0.90;;;15.10;61.40;;;;;;5114723;28;20293;-62
2023/12/30 04:11:51;;;;;;;1.42;0.70;;;15.10;61.40;;;;;;5114157;28;20242;-61
2023/12/30 04:14:17;;;;;;;1.10;0.80;;;15.10;61.40;;;;;;5114711;28;20172;-62
2023/12/30 04:16:43;;;;;;;1.98;1.00;;;15.10;61.40;;;;;;5115029;28;20188;-61
2023/12/30 04:19:08;;;;;;;2.05;0.93;;;15.10;61.40;;;;;;5114333;28;20169;-62
2023/12/30 04:21:34;;;;;;;2.97;1.27;;;15.10;61.40;;;;;;5114482;28;20264;-62
2023/12/30 04:23:59;;;;;;;2.38;1.20;;;15.10;61.30;;;;;;5114754;28;20551;-61
2023/12/30 04:26:25;;;;;;;2.72;1.25;;;15.10;61.40;;;;;;5113550;28;20596;-61
2023/12/30 04:28:50;;;;;;;2.15;1.25;;;15.10;61.40;;;;;;5114870;28;20185;-61
2023/12/30 04:31:16;;;;;;;2.28;1.20;;;15.10;61.40;;;;;;5114386;28;20209;-61
2023/12/30 04:33:41;;;;;;;3.00;1.48;;;15.00;61.40;;;;;;5113949;28;20169;-61
2023/12/30 04:36:07;;;;;;;3.83;1.95;;;15.10;61.40;;;;;;5114487;28;20640;-61
2023/12/30 04:38:33;;;;;;;2.00;1.50;;;15.00;61.30;;;;;;5114021;28;20253;-62
2023/12/30 04:40:58;;;;;;;3.35;1.98;;;15.00;61.40;;;;;;5113584;28;20171;-62
2023/12/30 04:43:24;;;;;;;2.75;1.45;;;15.00;61.30;;;;;;5113529;28;20261;-62
2023/12/30 04:45:49;;;;;;;2.78;1.67;;;15.00;61.30;;;;;;5114517;28;20236;-62
2023/12/30 04:48:15;;;;;;;3.08;1.67;;;15.00;61.30;;;;;;5113470;28;20169;-62
2023/12/30 04:50:40;;;;;;;2.65;1.48;;;15.00;61.30;;;;;;5114126;28;20234;-62
2023/12/30 04:53:06;;;;;;;3.40;1.60;;;15.10;61.40;;;;;;5114050;28;20212;-62
2023/12/30 04:55:31;;;;;;;3.13;1.83;;;15.00;61.30;;;;;;5113129;28;20261;-62
2023/12/30 04:57:57;;;;;;;3.20;1.77;;;15.00;61.40;;;;;;5114292;28;20187;-61
2023/12/30 05:00:22;;;;;;;2.75;1.27;;;15.00;61.30;;;;;;5113885;28;20184;-62
2023/12/30 05:02:48;;;;;;;1.88;1.30;;;15.00;61.40;;;;;;5113310;28;20814;-62
2023/12/30 05:05:14;;;;;;;3.08;1.35;;;15.00;61.30;;;;;;5113671;28;20640;-62
2023/12/30 05:07:39;;;;;;;4.30;2.08;;;15.00;61.30;;;;;;5113907;28;20227;-62
2023/12/30 05:10:05;;;;;;;5.45;1.98;;;15.00;61.30;;;;;;5112965;28;20187;-62
2023/12/30 05:12:31;;;;;;;2.03;1.52;;;15.00;61.30;;;;;;5095187;28;20185;-62
2023/12/30 05:14:56;;;;;;;3.10;1.42;;;15.00;61.30;;;;;;5113877;28;20165;-62
2023/12/30 05:17:22;;;;;;;3.38;1.38;;;15.00;61.40;;;;;;5112737;28;20184;-61
2023/12/30 05:19:48;;;;;;;2.58;1.33;;;15.00;61.30;;;;;;5113727;28;20166;-61
2023/12/30 05:22:14;;;;;;;3.65;1.67;;;15.00;61.20;;;;;;5112656;28;20204;-61
2023/12/30 05:24:39;;;;;;;2.75;1.63;;;14.90;61.20;;;;;;5113454;28;20178;-61
2023/12/30 05:27:05;;;;;;;2.17;1.30;;;15.00;62.10;;;;;;5113677;28;20539;-61
2023/12/30 05:29:30;;;;;;;2.75;1.33;;;14.90;61.20;;;;;;5112554;28;20757;-61
2023/12/30 05:31:56;;;;;;;3.30;1.58;;;14.90;61.30;;;;;;5113513;28;20173;-61
2023/12/30 05:34:21;;;;;;;1.98;1.25;;;14.90;61.20;;;;;;5113085;28;20169;-61
2023/12/30 05:36:47;;;;;;;3.05;1.50;;;14.90;61.30;;;;;;5112550;28;20314;-61
2023/12/30 05:39:14;;;;;;;4.55;1.77;;;14.90;61.20;;;;;;5113121;28;20735;-61
2023/12/30 05:41:40;;;;;;;3.88;1.73;;;14.90;61.20;;;;;;5112512;28;20220;-61
2023/12/30 05:44:05;;;;;;;4.50;1.73;;;14.90;61.30;;;;;;5112430;28;20253;-61
2023/12/30 05:46:31;;;;;;;4.60;1.77;;;14.90;61.30;;;;;;5112999;28;20205;-62
2023/12/30 05:48:57;;;;;;;3.58;1.55;;;14.90;61.10;;;;;;5113155;28;20201;-62
2023/12/30 05:51:22;;;;;;;2.33;1.40;;;15.00;61.20;;;;;;5111990;28;20613;-62
2023/12/30 05:53:48;;;;;;;2.85;1.42;;;15.00;61.00;;;;;;5112790;28;20221;-62
2023/12/30 05:56:23;;;;;;;2.63;1.40;;;15.00;60.90;;;;;;5111616;28;20517;-61
2023/12/30 05:58:49;;;;;;;3.72;1.38;;;15.10;60.90;;;;;;5111996;28;20616;-61
2023/12/30 06:01:15;;;;;;;3.08;1.58;;;15.10;60.70;;;;;;5112573;28;20177;-61
2023/12/30 06:03:40;;;;;;;2.47;1.60;;;15.20;60.60;;;;;;5112723;28;20212;-61
2023/12/30 06:06:06;;;;;;;2.50;1.30;;;15.30;60.50;;;;;;5112022;28;20162;-61
2023/12/30 06:08:33;;;;;;;2.08;1.38;;;15.30;60.50;;;;;;5112296;28;20169;-62
2023/12/30 06:10:58;;;;;;;2.42;1.40;;;15.40;60.50;;;;;;5112551;28;20177;-61
2023/12/30 06:13:24;;;;;;;1.95;1.40;;;15.50;60.40;;;;;;5111484;28;20234;-62
2023/12/30 06:15:50;;;;;;;2.47;1.42;;;15.50;60.30;;;;;;5112606;28;20226;-61
2023/12/30 06:18:16;;;;;;;3.83;1.42;;;15.50;60.30;;;;;;5112191;28;20517;-61
2023/12/30 06:20:45;;;;;;;1.50;1.40;;;15.60;60.20;;;;;;5111585;28;20180;-61
2023/12/30 06:23:10;;;;;;;2.88;1.13;;;15.60;60.10;;;;;;5112232;28;20350;-62
2023/12/30 06:25:37;;;;;;;2.22;1.60;;;15.70;60.00;;;;;;5111296;28;20256;-61
2023/12/30 06:28:03;;;;;;;1.55;1.10;;;15.80;59.90;;;;;;5112403;28;20188;-61
2023/12/30 06:30:29;;;;;;;2.38;1.30;;;15.90;59.80;;;;;;5111952;28;20201;-61
2023/12/30 06:32:54;;;;;;;2.88;1.30;;;15.90;59.70;;;;;;5111668;28;20220;-61
2023/12/30 06:35:20;;;;;;;2.05;1.33;;;15.90;59.60;;;;;;5111929;28;20306;-62
2023/12/30 06:37:47;;;;;;;2.75;1.30;;;16.00;59.50;;;;;;5112189;28;20302;-61
2023/12/30 06:40:13;;;;;;;2.67;1.35;;;16.00;59.50;;;;;;5111553;28;20169;-62
2023/12/30 06:42:38;;;;;;;2.70;1.20;;;16.00;59.40;;;;;;5112337;28;20216;-61
2023/12/30 06:45:04;;;;;;;2.20;1.13;;;16.10;59.30;;;;;;5112194;28;20176;-62
2023/12/30 06:47:30;;;;;;;1.85;1.08;;;16.10;59.30;;;;;;5110959;28;20200;-61
2023/12/30 06:49:55;;;;;;;3.20;1.52;;;16.10;59.30;;;;;;5112078;28;20168;-62
2023/12/30 06:52:21;;;;;;;2.38;1.50;;;16.30;59.30;;;;;;5111583;28;20169;-62
2023/12/30 06:54:47;;;;;;;3.75;1.48;;;16.40;59.20;;;;;;5111147;28;20315;-62
2023/12/30 06:57:12;;;;;;;2.60;1.45;;;16.50;59.00;;;;;;5112130;28;20264;-62
2023/12/30 06:59:38;;;;;;;3.10;1.38;;;16.70;58.70;;;;;;5111689;28;20264;-61
2023/12/30 07:02:03;;;;;;;2.03;1.25;;;16.80;58.40;;;;;;5111129;28;20226;-62
2023/12/30 07:04:29;;;;;;;2.10;1.20;;;16.90;58.30;;;;;;5111592;28;20189;-61
2023/12/30 07:06:54;;;;;;;1.73;1.00;;;17.00;58.20;;;;;;5115768;28;20561;-65
2023/12/30 07:09:20;;;;;;;1.80;1.20;;;17.10;58.00;;;;;;5117731;28;20596;-62
2023/12/30 07:11:46;;;;;;;3.15;1.10;;;17.10;57.90;;;;;;5118924;28;20189;-62
2023/12/30 07:14:11;;;;;;;3.40;1.40;;;17.20;57.70;;;;;;5118691;28;20245;-62
2023/12/30 07:16:36;;;;;;;3.28;1.30;;;17.20;57.70;;;;;;5117604;28;20212;-61
2023/12/30 07:19:02;;;;;;;2.03;1.38;;;17.20;57.70;;;;;;5118517;28;20248;-61
2023/12/30 07:21:28;;;;;;;3.63;1.23;;;17.20;57.70;;;;;;5118261;28;20180;-62
2023/12/30 07:23:53;;;;;;;2.00;1.08;;;17.20;57.70;;;;;;5117977;28;20299;-62
2023/12/30 07:26:19;;;;;;;3.90;1.48;;;17.10;57.80;;;;;;5118102;28;20180;-61
2023/12/30 07:28:45;;;;;;;2.53;1.35;;;17.10;57.80;;;;;;5118181;28;20177;-62
2023/12/30 07:31:10;;;;;;;2.78;1.15;;;17.10;58.00;;;;;;5118403;28;20176;-62
2023/12/30 07:33:36;;;;;;;2.38;1.20;;;17.10;58.00;;;;;;5118129;28;20177;-62
2023/12/30 07:36:04;;;;;;;2.95;1.20;;;17.10;58.00;;;;;;5117595;28;20172;-62
2023/12/30 07:38:30;;;;;;;3.95;1.75;;;17.10;58.00;;;;;;5118222;28;20204;-62
2023/12/30 07:40:56;;;;;;;3.10;1.20;;;17.10;58.00;;;;;;5118345;28;20651;-62
2023/12/30 07:43:21;;;;;;;2.30;1.40;;;17.20;57.90;;;;;;5117171;28;20244;-62
2023/12/30 07:45:47;;;;;;;4.00;1.45;;;17.20;58.00;;;;;;5118396;28;20172;-62
2023/12/30 07:48:12;;;;;;;2.05;1.10;;;17.10;58.10;;;;;;5118274;28;20654;-62
2023/12/30 07:50:38;;;;;;;2.58;1.00;;;17.20;58.10;;;;;;5117145;28;20644;-63
2023/12/30 07:53:04;;;;;;;3.17;1.20;;;17.20;58.10;;;;;;5117946;28;20214;-62
2023/12/30 07:55:29;;;;;;;2.67;1.30;;;17.10;58.80;;;;;;5118111;28;20192;-62
2023/12/30 07:57:55;;;;;;;2.53;1.55;;;17.10;58.10;;;;;;5117611;28;20253;-62
2023/12/30 08:00:21;;;;;;;3.22;1.38;;;17.20;58.20;;;;;;5117971;28;20169;-62
2023/12/30 08:02:47;;;;;;;2.28;1.42;;;17.20;58.20;;;;;;5117967;28;20213;-62
2023/12/30 08:05:12;;;;;;;2.83;1.10;;;17.20;58.10;;;;;;5117429;28;20197;-62
2023/12/30 08:07:38;;;;;;;1.40;0.93;;;17.20;58.20;;;;;;5117878;28;20654;-62
2023/12/30 08:10:04;;;;;;;3.30;1.10;;;17.20;58.10;;;;;;5118257;28;20200;-62
2023/12/30 08:12:29;;;;;;;1.95;1.20;;;17.20;58.00;;;;;;5117123;28;20272;-62
2023/12/30 08:14:55;;;;;;;2.38;0.90;;;17.20;58.10;;;;;;5118119;28;20161;-62
2023/12/30 08:17:20;;;;;;;1.80;1.10;;;17.20;58.10;;;;;;5116640;28;20532;-61
2023/12/30 08:19:46;;;;;;;2.15;0.93;;;17.20;58.00;;;;;;5113551;28;20628;-61
2023/12/30 08:22:11;;;;;;;3.15;1.30;;;17.20;58.10;;;;;;5114833;28;20220;-62
2023/12/30 08:24:37;;;;;;;2.78;1.25;;;17.20;58.10;;;;;;5114677;28;20173;-62
2023/12/30 08:27:03;;;;;;;1.83;1.27;;;17.30;58.10;;;;;;5114136;28;20173;-62
2023/12/30 08:29:29;;;;;;;2.00;1.00;;;17.20;58.10;;;;;;5114389;28;20173;-62
2023/12/30 08:31:54;;;;;;;1.90;1.00;;;17.20;58.10;;;;;;5114860;28;20169;-62
2023/12/30 08:34:21;;;;;;;1.90;1.10;;;17.20;58.20;;;;;;5113542;28;20180;-62
2023/12/30 08:36:46;;;;;;;2.63;1.17;;;17.20;58.20;;;;;;5114789;28;20177;-62
2023/12/30 08:39:12;;;;;;;2.85;1.40;;;17.20;58.30;;;;;;5113937;28;20195;-63
2023/12/30 08:41:38;;;;;;;2.72;1.15;;;17.20;58.20;;;;;;5114164;28;20169;-61
2023/12/30 08:44:03;;;;;;;1.80;1.10;;;17.30;58.30;;;;;;5114653;28;20208;-62
2023/12/30 08:46:29;;;;;;;2.42;1.35;;;17.30;58.20;;;;;;5113393;28;20655;-63
2023/12/30 08:48:54;;;;;;;2.85;1.35;;;17.20;58.20;;;;;;5114165;28;20176;-62
2023/12/30 08:51:20;;;;;;;1.73;1.00;;;17.30;58.30;;;;;;5113984;28;20241;-63
2023/12/30 08:53:46;;;;;;;2.80;1.60;;;17.20;58.20;;;;;;5113220;28;20811;-63
2023/12/30 08:56:14;;;;;;;2.70;1.30;;;17.30;58.30;;;;;;5114265;28;20195;-63
2023/12/30 08:58:40;;;;;;;2.42;1.00;;;17.30;58.20;;;;;;5114167;28;20296;-62
2023/12/30 09:01:06;;;;;;;4.00;1.52;;;17.30;58.20;;;;;;5113340;28;20588;-62
2023/12/30 09:03:31;;;;;;;1.95;1.05;;;17.40;58.10;;;;;;5113630;28;20719;-64
2023/12/30 09:05:57;;;;;;;3.17;1.30;;;17.30;58.10;;;;;;5114177;28;20255;-63
2023/12/30 09:08:22;;;;;;;2.90;1.10;;;17.30;58.20;;;;;;5112919;28;20639;-62
2023/12/30 09:10:48;;;;;;;4.45;1.10;;;17.20;58.20;;;;;;5113960;28;20166;-63
2023/12/30 09:13:14;;;;;;;3.08;1.33;;;17.20;58.30;;;;;;5113790;28;20176;-63
2023/12/30 09:15:39;;;;;;;3.25;1.23;;;17.10;58.40;;;;;;5113169;28;20177;-61
2023/12/30 09:18:05;;;;;;;2.83;1.38;;;17.10;58.50;;;;;;5113516;28;21083;-62
2023/12/30 09:20:30;;;;;;;1.60;1.20;;;17.10;58.60;;;;;;5113158;28;20188;-61
2023/12/30 09:22:56;;;;;;;3.90;1.35;;;17.10;58.60;;;;;;5112831;28;20382;-62
2023/12/30 09:25:21;;;;;;;3.90;1.17;;;17.10;58.70;;;;;;5113193;28;20205;-62
2023/12/30 09:27:47;;;;;;;3.92;1.55;;;17.10;58.70;;;;;;5113567;28;20246;-62
2023/12/30 09:30:12;;;;;;;1.60;1.17;;;17.00;58.60;;;;;;5112670;28;20173;-61
2023/12/30 09:32:38;;;;;;;2.80;1.60;;;17.00;58.70;;;;;;5113082;28;20173;-62
2023/12/30 09:35:05;;;;;;;1.63;1.13;;;17.00;58.80;;;;;;5113592;28;20169;-62
2023/12/30 09:37:30;;;;;;;4.78;1.80;;;16.90;58.90;;;;;;5094251;28;20585;-61
2023/12/30 09:39:56;;;;;;;2.30;1.17;;;16.80;59.00;;;;;;5113395;28;20660;-61
2023/12/30 09:42:22;;;;;;;1.60;0.95;;;16.80;59.10;;;;;;5112757;28;20209;-62
2023/12/30 09:44:49;;;;;;;3.08;1.10;;;16.80;59.20;;;;;;5112886;28;20173;-61
2023/12/30 09:47:14;;;;;;;1.73;1.02;;;16.80;59.20;;;;;;5094636;28;20184;-61
2023/12/30 09:49:40;;;;;;;2.40;1.40;;;16.80;59.20;;;;;;5094119;28;20225;-62
2023/12/30 09:52:08;;;;;;;3.30;1.33;;;16.80;59.10;;;;;;5113206;28;20192;-62
2023/12/30 09:54:34;;;;;;;3.20;1.63;;;16.80;59.10;;;;;;5094937;28;20232;-62
2023/12/30 09:57:00;;;;;;;5.22;1.63;;;16.80;59.20;;;;;;5112355;28;20241;-61
2023/12/30 09:59:30;;;;;;;4.78;1.67;;;16.80;59.20;;;;;;5112597;28;20169;-61
2023/12/30 10:01:58;;;;;;;2.10;1.15;;;16.70;59.20;;;;;;5095120;28;20177;-61
2023/12/30 10:04:24;;;;;;;1.60;1.15;;;16.70;59.30;;;;;;5093626;28;20181;-61
2023/12/30 10:06:49;;;;;;;4.25;1.27;;;16.70;59.40;;;;;;5112995;28;20176;-61
2023/12/30 10:09:16;;;;;;;3.10;1.15;;;16.60;59.40;;;;;;5112469;28;20188;-61
2023/12/30 10:11:43;;;;;;;3.92;1.20;;;16.60;59.50;;;;;;5111819;28;20223;-61
2023/12/30 10:14:09;;;;;;;1.35;1.08;;;16.60;59.50;;;;;;5112524;28;20523;-61
2023/12/30 10:16:35;;;;;;;3.58;1.42;;;16.60;59.50;;;;;;5112607;28;20325;-61
2023/12/30 10:19:01;;;;;;;2.38;1.30;;;16.60;59.50;;;;;;5111884;28;20208;-61
2023/12/30 10:21:27;;;;;;;2.25;1.00;;;16.60;59.40;;;;;;5112413;28;20226;-61
2023/12/30 10:23:54;;;;;;;3.42;1.30;;;16.60;59.40;;;;;;5112418;28;20216;-61
2023/12/30 10:26:21;;;;;;;5.18;1.75;;;16.60;59.40;;;;;;5111469;28;20177;-62
2023/12/30 10:28:46;;;;;;;2.55;1.38;;;16.50;59.40;;;;;;5094351;28;20177;-61
2023/12/30 10:31:13;;;;;;;2.17;1.23;;;16.50;59.60;;;;;;5112245;28;20184;-61
2023/12/30 10:33:39;;;;;;;3.42;1.27;;;16.60;59.60;;;;;;5076644;28;20511;-62
2023/12/30 10:36:05;;;;;;;2.42;1.55;;;16.50;59.70;;;;;;5077152;28;20195;-62
2023/12/30 10:38:30;;;;;;;3.03;1.35;;;16.50;59.80;;;;;;5112098;28;20183;-61
2023/12/30 10:40:56;;;;;;;3.25;1.48;;;16.50;59.70;;;;;;5111041;28;20602;-61
2023/12/30 10:43:21;;;;;;;3.00;1.33;;;16.50;59.70;;;;;;5111763;28;20726;-62
2023/12/30 10:45:58;;;;;;;5.63;1.95;;;16.50;59.60;;;;;;5111776;28;20651;-61
2023/12/30 10:48:28;;;;;;;3.53;1.40;;;16.50;59.60;;;;;;5111985;28;20196;-62
2023/12/30 10:50:53;;;;;;;2.92;1.45;;;16.50;59.60;;;;;;5111969;28;20643;-62
2023/12/30 10:53:29;;;;;;;2.90;1.45;;;16.50;59.70;;;;;;5075878;28;20236;-62
2023/12/30 10:55:59;;;;;;;3.65;1.55;;;16.50;59.70;;;;;;5094685;28;20186;-62
2023/12/30 10:58:25;;;;;;;1.95;1.20;;;16.50;59.80;;;;;;5093954;28;20594;-62
2023/12/30 11:00:57;;;;;;;2.22;1.20;;;16.40;59.70;;;;;;5076169;28;20173;-62
2023/12/30 11:03:25;;;;;;;4.10;1.23;;;16.50;59.90;;;;;;5111728;28;20224;-65
2023/12/30 11:06:12;;;;;;;2.95;1.30;;;16.40;59.80;;;;;;5077703;28;20183;-62
2023/12/30 11:08:41;;;;;;;3.35;1.33;;;16.40;59.90;;;;;;5110925;28;20223;-62
2023/12/30 11:11:07;;;;;;;2.40;1.10;;;16.40;59.90;;;;;;5112168;28;20291;-65
2023/12/30 11:13:52;;;;;;;2.53;1.23;;;16.40;59.80;;;;;;5111814;28;20259;-65
2023/12/30 11:16:19;;;;;;;2.25;1.10;;;16.40;59.80;;;;;;5076621;28;20215;-61
2023/12/30 11:18:49;;;;;;;3.53;1.27;;;16.40;59.70;;;;;;5111957;28;20187;-61
2023/12/30 11:21:43;;;;;;;3.85;1.67;;;16.40;59.80;;;;;;5110786;28;20655;-61
2023/12/30 11:24:17;;;;;;;3.70;1.40;;;16.40;59.80;;;;;;5112087;28;20216;-61
2023/12/30 11:26:43;;;;;;;2.33;1.40;;;16.40;59.80;;;;;;5111746;28;20169;-61
2023/12/30 11:29:13;;;;;;;4.32;1.35;;;16.40;59.80;;;;;;5093081;28;20173;-61
2023/12/30 11:31:43;;;;;;;2.50;1.35;;;16.40;59.80;;;;;;5111391;28;20268;-62
2023/12/30 11:34:13;;;;;;;3.03;1.20;;;16.40;59.80;;;;;;5111805;28;20181;-62
2023/12/30 11:36:39;;;;;;;4.40;1.60;;;16.40;59.90;;;;;;5111009;28;20185;-62
2023/12/30 11:39:07;;;;;;;3.42;1.55;;;16.40;60.00;;;;;;5111535;28;20194;-62
2023/12/30 11:41:32;;;;;;;3.38;1.40;;;16.40;59.90;;;;;;5111167;28;20181;-62
2023/12/30 11:43:59;;;;;;;2.75;1.20;;;16.40;59.90;;;;;;5092511;28;20223;-61
2023/12/30 11:46:28;;;;;;;2.78;1.40;;;16.40;59.90;;;;;;5093031;28;20174;-62
2023/12/30 11:48:53;;;;;;;3.97;1.73;;;16.40;59.90;;;;;;5111663;28;20180;-62
2023/12/30 11:51:22;;;;;;;3.97;1.55;;;16.40;59.80;;;;;;5110602;28;20173;-62
2023/12/30 11:53:47;;;;;;;2.47;1.17;;;16.40;59.90;;;;;;5113183;28;20316;-61
2023/12/30 11:56:15;;;;;;;5.07;2.00;;;16.40;59.90;;;;;;5114685;28;20716;-62
2023/12/30 11:58:41;;;;;;;3.97;1.40;;;16.40;59.90;;;;;;5115215;28;20199;-62
2023/12/30 12:01:06;;;;;;;2.42;1.42;;;16.30;59.80;;;;;;5096458;28;20209;-61
2023/12/30 12:03:32;;;;;;;3.25;1.30;;;16.30;60.00;;;;;;5114142;28;20271;-62
2023/12/30 12:05:57;;;;;;;3.70;1.48;;;16.30;60.00;;;;;;5115100;28;20610;-62
2023/12/30 12:08:23;;;;;;;3.55;1.60;;;16.30;60.00;;;;;;5114849;28;20547;-62
2023/12/30 12:10:49;;;;;;;3.40;1.27;;;16.40;60.00;;;;;;5114351;28;20662;-61
2023/12/30 12:13:21;;;;;;;3.33;1.63;;;16.40;59.90;;;;;;5096491;28;20208;-62
2023/12/30 12:15:48;;;;;;;4.63;1.60;;;16.40;59.90;;;;;;5115180;28;20174;-62
2023/12/30 12:18:13;;;;;;;3.88;1.48;;;16.40;60.00;;;;;;5114120;28;20538;-61
2023/12/30 12:20:42;;;;;;;3.28;1.92;;;16.30;59.90;;;;;;5114864;28;20185;-61
2023/12/30 12:23:07;;;;;;;4.30;1.55;;;16.30;60.00;;;;;;5114881;28;20235;-62
2023/12/30 12:25:33;;;;;;;4.00;1.75;;;16.30;60.00;;;;;;5078705;28;20531;-63
2023/12/30 12:27:59;;;;;;;1.88;1.63;;;16.30;60.00;;;;;;5115024;28;20727;-63
2023/12/30 12:30:24;;;;;;;2.47;1.25;;;16.30;60.00;;;;;;5114411;28;20170;-62
2023/12/30 12:32:50;;;;;;;1.42;1.10;;;16.30;60.10;;;;;;5113938;28;20173;-63
2023/12/30 12:35:15;;;;;;;3.63;1.55;;;16.30;60.10;;;;;;5114424;28;20192;-63
2023/12/30 12:37:41;;;;;;;3.53;1.35;;;16.30;60.00;;;;;;5114707;28;20223;-63
2023/12/30 12:40:12;;;;;;;4.35;1.50;;;16.40;60.00;;;;;;5095549;28;20285;-63
2023/12/30 12:42:37;;;;;;;3.33;1.55;;;16.40;60.00;;;;;;5114346;28;20213;-63